Time;durP1;ratioP1;P1;durP2;ratioP2;P2;SDS_P1;SDS_P2;PMS_P1;PMS_P2;Temp;Humidity;BMP_temperature;BMP_pressure;BME280_temperature;BME280_humidity;BME280_pressure;Samples;Min_cycle;Max_cycle;Signal;HPM_P1;HPM_P2
2022/11/10 00:00:33;;;;;;;0.30;0.30;;;;;;;;;;6096205;23;20371;-77
2022/11/10 00:03:06;;;;;;;0.00;0.00;;;;;;;;;;6098696;23;19998;-78
2022/11/10 00:05:33;;;;;;;0.00;0.00;;;;;;;;;;6100797;23;19999;-78
2022/11/10 00:08:04;;;;;;;0.00;0.00;;;;;;;;;;6103281;23;20002;-77
2022/11/10 00:10:30;;;;;;;0.00;0.00;;;;;;;;;;6101946;23;20006;-77
2022/11/10 00:13:03;;;;;;;0.70;0.70;;;;;;;;;;6097677;23;20422;-77
2022/11/10 00:18:14;;;;;;;0.00;0.00;;;;;;;;;;6098155;23;20070;-77
2022/11/10 00:20:40;;;;;;;0.00;0.00;;;;;;;;;;6096031;23;20089;-77
2022/11/10 00:23:07;;;;;;;0.10;0.10;;;;;;;;;;6095733;23;20057;-77
2022/11/10 00:25:33;;;;;;;0.10;0.10;;;;;;;;;;6097137;23;20006;-76
2022/11/10 00:27:59;;;;;;;0.00;0.00;;;;;;;;;;6094416;23;20006;-77
2022/11/10 00:30:26;;;;;;;0.10;0.10;;;;;;;;;;6096815;23;20008;-77
2022/11/10 00:32:52;;;;;;;0.00;0.00;;;;;;;;;;6095792;23;20069;-77
2022/11/10 00:35:19;;;;;;;0.00;0.00;;;;;;;;;;6095717;23;20006;-76
2022/11/10 00:37:45;;;;;;;0.00;0.00;;;;;;;;;;6095937;23;20434;-77
2022/11/10 00:40:11;;;;;;;1.07;1.07;;;;;;;;;;6097253;23;20368;-77
2022/11/10 00:42:38;;;;;;;0.20;0.20;;;;;;;;;;6096912;23;20003;-77
2022/11/10 00:45:04;;;;;;;5.40;5.10;;;;;;;;;;6095207;23;20081;-78
2022/11/10 00:47:31;;;;;;;0.00;0.00;;;;;;;;;;6095373;23;20010;-78
2022/11/10 00:49:57;;;;;;;0.10;0.10;;;;;;;;;;6097156;23;19998;-77
2022/11/10 00:52:23;;;;;;;0.00;0.00;;;;;;;;;;6098271;23;20042;-76
2022/11/10 00:54:50;;;;;;;0.00;0.00;;;;;;;;;;6097174;23;20014;-77
2022/11/10 00:57:16;;;;;;;0.00;0.00;;;;;;;;;;6097007;23;20089;-77
2022/11/10 00:59:42;;;;;;;2.47;2.37;;;;;;;;;;6117350;23;20029;-77
2022/11/10 01:02:09;;;;;;;0.07;0.07;;;;;;;;;;6098557;23;20009;-78
2022/11/10 01:04:35;;;;;;;0.10;0.10;;;;;;;;;;6127124;23;20495;-76
2022/11/10 01:07:01;;;;;;;0.00;0.00;;;;;;;;;;6127404;23;20002;-76
2022/11/10 01:09:28;;;;;;;0.00;0.00;;;;;;;;;;6103196;23;20037;-77
2022/11/10 01:11:54;;;;;;;1.90;1.80;;;;;;;;;;6130831;23;20002;-76
2022/11/10 01:14:20;;;;;;;0.17;0.17;;;;;;;;;;6134623;23;20026;-77
2022/11/10 01:16:46;;;;;;;0.00;0.00;;;;;;;;;;6145652;23;20009;-77
2022/11/10 01:19:13;;;;;;;0.10;0.10;;;;;;;;;;6106551;23;20014;-77
2022/11/10 01:21:39;;;;;;;0.50;0.50;;;;;;;;;;6102081;23;20010;-77
2022/11/10 01:24:06;;;;;;;0.00;0.00;;;;;;;;;;6127374;23;20109;-76
2022/11/10 01:26:32;;;;;;;0.00;0.00;;;;;;;;;;6126390;23;19998;-76
2022/11/10 01:28:58;;;;;;;0.73;0.73;;;;;;;;;;6099918;23;20006;-77
2022/11/10 01:31:25;;;;;;;4.23;3.03;;;;;;;;;;6100271;23;20013;-77
2022/11/10 01:33:51;;;;;;;1.03;1.03;;;;;;;;;;6100593;23;20010;-77
2022/11/10 01:36:17;;;;;;;1.40;1.30;;;;;;;;;;6127468;23;20005;-76
2022/11/10 01:38:44;;;;;;;2.03;1.93;;;;;;;;;;6127050;23;20013;-77
2022/11/10 01:41:11;;;;;;;1.17;0.60;;;;;;;;;;6101116;23;20006;-79
2022/11/10 01:43:38;;;;;;;0.73;0.73;;;;;;;;;;6126763;23;20013;-78
2022/11/10 01:46:08;;;;;;;1.17;1.17;;;;;;;;;;6127932;23;20093;-78
2022/11/10 01:48:47;;;;;;;0.60;0.60;;;;;;;;;;6137184;23;20002;-78
2022/11/10 01:51:13;;;;;;;0.93;0.93;;;;;;;;;;6119905;23;20070;-79
2022/11/10 01:53:41;;;;;;;0.10;0.10;;;;;;;;;;6114934;23;20085;-79
2022/11/10 01:56:08;;;;;;;0.00;0.00;;;;;;;;;;6104308;23;20013;-79
2022/11/10 01:58:38;;;;;;;0.20;0.20;;;;;;;;;;6126312;23;20098;-79
2022/11/10 02:01:06;;;;;;;0.00;0.00;;;;;;;;;;6101416;23;20100;-79
2022/11/10 02:03:40;;;;;;;0.00;0.00;;;;;;;;;;6127503;23;20006;-79
2022/11/10 02:06:07;;;;;;;0.00;0.00;;;;;;;;;;6101265;23;20006;-79
2022/11/10 02:08:34;;;;;;;0.70;0.70;;;;;;;;;;6102116;23;20017;-79
2022/11/10 02:11:00;;;;;;;0.00;0.00;;;;;;;;;;6127093;23;19998;-79
2022/11/10 02:13:26;;;;;;;0.00;0.00;;;;;;;;;;6102920;23;20040;-79
2022/11/10 02:15:53;;;;;;;0.57;0.57;;;;;;;;;;6128362;23;20037;-79
2022/11/10 02:18:19;;;;;;;0.60;0.60;;;;;;;;;;6126549;23;20498;-79
2022/11/10 02:20:46;;;;;;;1.30;1.30;;;;;;;;;;6126509;23;20427;-78
2022/11/10 02:23:33;;;;;;;0.30;0.30;;;;;;;;;;6126899;23;20288;-79
2022/11/10 02:25:59;;;;;;;0.23;0.23;;;;;;;;;;6099965;23;20428;-80
2022/11/10 02:28:26;;;;;;;0.00;0.00;;;;;;;;;;6126593;23;20021;-80
2022/11/10 02:30:52;;;;;;;2.00;1.90;;;;;;;;;;6100745;23;20010;-79
2022/11/10 02:33:19;;;;;;;0.00;0.00;;;;;;;;;;6127269;23;20356;-77
2022/11/10 02:35:46;;;;;;;0.73;0.73;;;;;;;;;;6124655;23;20338;-79
2022/11/10 02:38:13;;;;;;;2.43;2.33;;;;;;;;;;6125894;23;20157;-79
2022/11/10 02:40:39;;;;;;;0.53;0.53;;;;;;;;;;6126376;23;20006;-79
2022/11/10 02:43:07;;;;;;;0.00;0.00;;;;;;;;;;6098979;23;20006;-78
2022/11/10 02:45:33;;;;;;;0.00;0.00;;;;;;;;;;6099398;23;20002;-80
2022/11/10 02:47:59;;;;;;;0.00;0.00;;;;;;;;;;6125457;23;20001;-78
2022/11/10 02:50:26;;;;;;;1.30;1.30;;;;;;;;;;6101203;23;20060;-80
2022/11/10 02:52:52;;;;;;;9.43;2.03;;;;;;;;;;6125977;23;20426;-79
2022/11/10 02:55:18;;;;;;;25.07;23.07;;;;;;;;;;6104804;23;20010;-78
2022/11/10 02:57:44;;;;;;;0.57;0.57;;;;;;;;;;6108958;23;20509;-79
2022/11/10 03:00:11;;;;;;;0.37;0.37;;;;;;;;;;6108710;23;20079;-80
2022/11/10 03:02:37;;;;;;;3.53;3.40;;;;;;;;;;6122724;23;20415;-80
2022/11/10 03:05:04;;;;;;;2.10;2.00;;;;;;;;;;6122334;23;20025;-80
2022/11/10 03:07:30;;;;;;;0.00;0.00;;;;;;;;;;6124289;23;20029;-79
2022/11/10 03:09:56;;;;;;;1.90;1.70;;;;;;;;;;6144522;23;20014;-80
2022/11/10 03:12:23;;;;;;;0.00;0.00;;;;;;;;;;6102350;23;20006;-79
2022/11/10 03:14:49;;;;;;;5.77;5.53;;;;;;;;;;6124863;23;20006;-80
2022/11/10 03:17:15;;;;;;;1.30;1.20;;;;;;;;;;6125099;23;20006;-81
2022/11/10 03:19:42;;;;;;;0.00;0.00;;;;;;;;;;6099099;23;20010;-79
2022/11/10 03:22:11;;;;;;;0.10;0.10;;;;;;;;;;6122848;23;20061;-76
2022/11/10 03:24:38;;;;;;;1.75;1.10;;;;;;;;;;6099139;23;20579;-79
2022/11/10 03:27:04;;;;;;;0.73;0.73;;;;;;;;;;6096001;23;20119;-80
2022/11/10 03:29:30;;;;;;;0.00;0.00;;;;;;;;;;6105782;23;20026;-80
2022/11/10 03:31:57;;;;;;;0.00;0.00;;;;;;;;;;6102107;23;20404;-79
2022/11/10 03:34:23;;;;;;;3.90;1.92;;;;;;;;;;6133415;23;20006;-84
2022/11/10 03:36:50;;;;;;;1.77;1.55;;;;;;;;;;6132884;23;20057;-84
2022/11/10 03:39:16;;;;;;;0.10;0.10;;;;;;;;;;6105487;23;20005;-81
2022/11/10 03:41:42;;;;;;;1.98;1.00;;;;;;;;;;6130791;23;20009;-79
2022/11/10 03:44:09;;;;;;;0.08;0.08;;;;;;;;;;6143543;23;20036;-77
2022/11/10 03:46:35;;;;;;;0.00;0.00;;;;;;;;;;6137284;23;20075;-77
2022/11/10 03:49:01;;;;;;;1.55;1.45;;;;;;;;;;6126192;23;20002;-77
2022/11/10 03:51:28;;;;;;;0.38;0.38;;;;;;;;;;6098260;23;20017;-78
2022/11/10 03:53:54;;;;;;;0.50;0.50;;;;;;;;;;6098535;23;20351;-77
2022/11/10 03:56:21;;;;;;;0.00;0.00;;;;;;;;;;6124677;23;20002;-78
2022/11/10 03:58:47;;;;;;;7.72;6.93;;;;;;;;;;6120954;23;20336;-81
2022/11/10 04:01:13;;;;;;;0.98;0.95;;;;;;;;;;6097529;23;20076;-80
2022/11/10 04:03:40;;;;;;;0.32;0.32;;;;;;;;;;6097431;23;20017;-78
2022/11/10 04:09:00;;;;;;;0.08;0.08;;;;;;;;;;6127610;23;20017;-79
2022/11/10 04:16:58;;;;;;;2.78;2.38;;;;;;;;;;6126507;23;20022;-78
2022/11/10 04:19:24;;;;;;;2.60;2.33;;;;;;;;;;6099662;23;20018;-79
2022/11/10 04:21:50;;;;;;;2.78;2.63;;;;;;;;;;6101161;23;20017;-79
2022/11/10 04:24:17;;;;;;;3.22;3.13;;;;;;;;;;6125035;23;20085;-78
2022/11/10 04:26:44;;;;;;;0.52;0.52;;;;;;;;;;6097743;23;20017;-79
2022/11/10 04:29:11;;;;;;;10.32;9.52;;;;;;;;;;6122167;23;20002;-80
2022/11/10 04:31:38;;;;;;;8.73;1.83;;;;;;;;;;6094766;23;20109;-78
2022/11/10 04:34:06;;;;;;;0.50;0.50;;;;;;;;;;6122980;23;20009;-84
2022/11/10 04:36:33;;;;;;;2.03;1.92;;;;;;;;;;6126750;23;20009;-81
2022/11/10 04:39:00;;;;;;;4.18;3.85;;;;;;;;;;6128047;23;20009;-80
2022/11/10 04:41:27;;;;;;;3.22;3.03;;;;;;;;;;6101653;23;20013;-82
2022/11/10 04:43:56;;;;;;;0.00;0.00;;;;;;;;;;6128138;23;20009;-87
2022/11/10 04:46:27;;;;;;;0.40;0.40;;;;;;;;;;6102460;23;20439;-82
2022/11/10 04:48:54;;;;;;;0.13;0.13;;;;;;;;;;6126385;23;20014;-81
2022/11/10 04:51:22;;;;;;;5.65;2.10;;;;;;;;;;6100427;23;20002;-81
2022/11/10 04:53:48;;;;;;;0.88;0.88;;;;;;;;;;6127627;23;20335;-81
2022/11/10 04:56:19;;;;;;;0.00;0.00;;;;;;;;;;6127761;23;20010;-82
2022/11/10 04:58:45;;;;;;;1.17;1.17;;;;;;;;;;6138468;23;20010;-81
2022/11/10 05:01:12;;;;;;;1.15;0.68;;;;;;;;;;6144988;23;20747;-81
2022/11/10 05:03:39;;;;;;;2.17;1.90;;;;;;;;;;6108182;23;20450;-79
2022/11/10 05:06:05;;;;;;;0.13;0.13;;;;;;;;;;6104765;23;20006;-79
2022/11/10 05:08:32;;;;;;;4.20;4.00;;;;;;;;;;6130676;23;20001;-80
2022/11/10 05:10:58;;;;;;;3.42;3.22;;;;;;;;;;6128787;23;20002;-81
2022/11/10 05:13:24;;;;;;;4.47;4.20;;;;;;;;;;6101618;23;20339;-81
2022/11/10 05:15:52;;;;;;;0.68;0.68;;;;;;;;;;6102082;23;20060;-81
2022/11/10 05:18:18;;;;;;;10.73;9.43;;;;;;;;;;6130517;23;20364;-81
2022/11/10 05:20:45;;;;;;;2.17;1.75;;;;;;;;;;6131177;23;20021;-81
2022/11/10 05:25:56;;;;;;;8.20;7.45;;;;;;;;;;6129960;23;20065;-82
2022/11/10 05:28:22;;;;;;;4.32;4.10;;;;;;;;;;6103019;23;20094;-80
2022/11/10 05:30:58;;;;;;;6.53;6.18;;;;;;;;;;6133522;23;20117;-79
2022/11/10 05:33:36;;;;;;;8.43;5.75;;;;;;;;;;6107170;23;20044;-82
2022/11/10 05:36:03;;;;;;;16.02;11.10;;;;;;;;;;6118312;23;20005;-83
2022/11/10 05:38:50;;;;;;;2.42;1.92;;;;;;;;;;6134897;23;20002;-81
2022/11/10 05:41:22;;;;;;;4.63;4.25;;;;;;;;;;6106505;23;20435;-80
2022/11/10 05:43:48;;;;;;;13.20;11.88;;;;;;;;;;6111726;23;20026;-81
2022/11/10 05:46:15;;;;;;;23.35;17.00;;;;;;;;;;6119948;23;20006;-80
2022/11/10 05:48:41;;;;;;;11.25;7.47;;;;;;;;;;6119163;23;20017;-82
2022/11/10 05:51:08;;;;;;;20.65;7.13;;;;;;;;;;6102222;23;20006;-81
2022/11/10 05:53:34;;;;;;;4.70;4.30;;;;;;;;;;6101127;23;20017;-82
2022/11/10 05:56:01;;;;;;;11.50;10.30;;;;;;;;;;6100699;23;20021;-81
2022/11/10 05:58:27;;;;;;;20.58;5.03;;;;;;;;;;6102527;23;20037;-82
2022/11/10 06:00:54;;;;;;;17.08;14.63;;;;;;;;;;6129368;23;20006;-82
2022/11/10 06:03:20;;;;;;;2.38;2.17;;;;;;;;;;6126568;23;20005;-82
2022/11/10 06:05:47;;;;;;;22.25;11.20;;;;;;;;;;6103521;23;20006;-81
2022/11/10 06:08:13;;;;;;;10.32;9.10;;;;;;;;;;6124400;23;20005;-80
2022/11/10 06:10:40;;;;;;;8.43;4.53;;;;;;;;;;6130524;23;19998;-81
2022/11/10 06:13:07;;;;;;;42.13;21.77;;;;;;;;;;6123239;23;20021;-83
2022/11/10 06:15:33;;;;;;;14.52;13.18;;;;;;;;;;6120952;23;20018;-79
2022/11/10 06:17:59;;;;;;;18.88;14.00;;;;;;;;;;6105590;23;20010;-83
2022/11/10 06:20:27;;;;;;;30.88;18.23;;;;;;;;;;6104053;23;20013;-83
2022/11/10 06:23:13;;;;;;;5.82;4.05;;;;;;;;;;6100757;23;20010;-81
2022/11/10 06:25:58;;;;;;;2.28;2.00;;;;;;;;;;6109722;23;20701;-79
2022/11/10 06:28:28;;;;;;;0.93;0.93;;;;;;;;;;6105560;23;20010;-78
2022/11/10 06:30:57;;;;;;;3.70;3.50;;;;;;;;;;6130824;23;20050;-81
2022/11/10 06:33:31;;;;;;;2.83;2.72;;;;;;;;;;6131622;23;20012;-80
2022/11/10 06:35:57;;;;;;;8.57;4.32;;;;;;;;;;6111952;23;20013;-81
2022/11/10 06:38:23;;;;;;;6.90;6.25;;;;;;;;;;6106987;23;20014;-80
2022/11/10 06:40:50;;;;;;;30.30;19.02;;;;;;;;;;6107633;23;20017;-80
2022/11/10 06:43:16;;;;;;;0.52;0.52;;;;;;;;;;6107352;23;20033;-85
2022/11/10 06:45:42;;;;;;;0.80;0.80;;;;;;;;;;6110140;23;20001;-84
2022/11/10 06:48:13;;;;;;;1.08;1.08;;;;;;;;;;6102816;23;20048;-84
2022/11/10 06:50:39;;;;;;;5.05;4.68;;;;;;;;;;6124053;23;20382;-79
2022/11/10 06:53:06;;;;;;;9.93;7.90;;;;;;;;;;6100166;23;20030;-82
2022/11/10 06:55:32;;;;;;;5.28;2.38;;;;;;;;;;6097413;23;20002;-81
2022/11/10 06:57:59;;;;;;;8.00;2.92;;;;;;;;;;6125714;23;20009;-84
2022/11/10 07:00:27;;;;;;;1.65;1.55;;;;;;;;;;6122172;23;20038;-82
2022/11/10 07:03:07;;;;;;;13.75;12.40;;;;;;;;;;6101734;23;20437;-81
2022/11/10 07:05:34;;;;;;;16.00;10.10;;;;;;;;;;6097877;23;20017;-81
2022/11/10 07:08:04;;;;;;;1.25;1.25;;;;;;;;;;6124142;23;20002;-82
2022/11/10 07:10:31;;;;;;;0.40;0.38;;;;;;;;;;6125248;23;20028;-80
2022/11/10 07:13:01;;;;;;;1.08;1.08;;;;;;;;;;6097104;23;20013;-79
2022/11/10 07:15:27;;;;;;;3.25;1.52;;;;;;;;;;6096130;23;20014;-78
2022/11/10 07:17:54;;;;;;;6.30;2.88;;;;;;;;;;6098128;23;20029;-79
2022/11/10 07:20:20;;;;;;;4.70;4.45;;;;;;;;;;6122578;23;20010;-82
2022/11/10 07:22:46;;;;;;;6.70;6.30;;;;;;;;;;6125028;23;20005;-79
2022/11/10 07:25:13;;;;;;;8.02;7.22;;;;;;;;;;6098619;23;20041;-79
2022/11/10 07:27:39;;;;;;;3.75;3.60;;;;;;;;;;6125984;23;20033;-81
2022/11/10 07:30:11;;;;;;;3.00;1.55;;;;;;;;;;6124347;23;20462;-82
2022/11/10 07:32:37;;;;;;;7.30;6.85;;;;;;;;;;6103599;23;20002;-83
2022/11/10 07:35:04;;;;;;;10.18;6.70;;;;;;;;;;6126883;23;20006;-84
2022/11/10 07:37:30;;;;;;;2.72;2.55;;;;;;;;;;6099986;23;20339;-81
2022/11/10 07:39:57;;;;;;;5.75;2.55;;;;;;;;;;6127548;23;20045;-81
2022/11/10 07:42:23;;;;;;;3.45;3.03;;;;;;;;;;6100478;23;20033;-82
2022/11/10 07:44:49;;;;;;;4.28;4.05;;;;;;;;;;6098259;23;20474;-80
2022/11/10 07:47:16;;;;;;;18.05;11.30;;;;;;;;;;6098877;23;20145;-80
2022/11/10 07:49:42;;;;;;;0.40;0.40;;;;;;;;;;6099629;23;20010;-79
2022/11/10 07:52:09;;;;;;;4.97;4.25;;;;;;;;;;6099557;23;20025;-81
2022/11/10 07:54:35;;;;;;;24.70;9.57;;;;;;;;;;6129540;23;20006;-82
2022/11/10 07:57:01;;;;;;;0.10;0.10;;;;;;;;;;6102693;23;20002;-82
2022/11/10 07:59:27;;;;;;;0.13;0.13;;;;;;;;;;6104181;23;20018;-83
2022/11/10 08:01:54;;;;;;;8.52;7.82;;;;;;;;;;6115702;23;20020;-83
2022/11/10 08:04:20;;;;;;;4.07;3.70;;;;;;;;;;6147244;23;20030;-82
2022/11/10 08:06:46;;;;;;;4.43;4.05;;;;;;;;;;6148944;23;20002;-82
2022/11/10 08:09:13;;;;;;;0.98;0.43;;;;;;;;;;6112598;23;20029;-82
2022/11/10 08:11:39;;;;;;;0.00;0.00;;;;;;;;;;6130727;23;20326;-84
2022/11/10 08:14:05;;;;;;;0.00;0.00;;;;;;;;;;6130571;23;20006;-82
2022/11/10 08:16:32;;;;;;;0.77;0.77;;;;;;;;;;6098806;23;20025;-83
2022/11/10 08:18:58;;;;;;;0.57;0.57;;;;;;;;;;6105174;23;20006;-84
2022/11/10 08:21:25;;;;;;;5.28;4.65;;;;;;;;;;6110634;23;20010;-77
2022/11/10 08:23:51;;;;;;;7.28;6.15;;;;;;;;;;6134525;23;20012;-79
2022/11/10 08:26:17;;;;;;;3.65;3.45;;;;;;;;;;6141324;23;20034;-76
2022/11/10 08:28:44;;;;;;;7.60;7.13;;;;;;;;;;6127509;23;20036;-76
2022/11/10 08:31:10;;;;;;;2.15;1.38;;;;;;;;;;6126849;23;20028;-77
2022/11/10 08:33:37;;;;;;;5.10;4.80;;;;;;;;;;6124576;23;20343;-78
2022/11/10 08:36:07;;;;;;;0.10;0.10;;;;;;;;;;6126961;23;20002;-76
2022/11/10 08:38:33;;;;;;;0.05;0.05;;;;;;;;;;6101243;23;20441;-77
2022/11/10 08:40:59;;;;;;;4.95;2.58;;;;;;;;;;6127247;23;20053;-78
2022/11/10 08:43:27;;;;;;;12.63;6.43;;;;;;;;;;6126851;23;20010;-79
2022/11/10 08:45:56;;;;;;;7.85;3.60;;;;;;;;;;6135032;23;19989;-81
2022/11/10 08:48:23;;;;;;;0.75;0.75;;;;;;;;;;6123516;23;20013;-82
2022/11/10 08:50:50;;;;;;;1.75;1.35;;;;;;;;;;6134740;23;20017;-86
2022/11/10 08:53:18;;;;;;;22.48;12.35;;;;;;;;;;6103665;23;20074;-84
2022/11/10 08:55:45;;;;;;;15.00;4.72;;;;;;;;;;6103083;23;20065;-82
2022/11/10 08:58:16;;;;;;;33.08;13.52;;;;;;;;;;6108564;23;20021;-81
2022/11/10 09:00:43;;;;;;;0.63;0.63;;;;;;;;;;6114460;23;20006;-81
2022/11/10 09:03:14;;;;;;;3.22;3.03;;;;;;;;;;6103082;23;20049;-79
2022/11/10 09:05:41;;;;;;;9.20;4.65;;;;;;;;;;6101494;23;20006;-82
2022/11/10 09:08:07;;;;;;;6.43;4.80;;;;;;;;;;6100697;23;20092;-81
2022/11/10 09:10:35;;;;;;;0.75;0.75;;;;;;;;;;6100375;23;20002;-78
2022/11/10 09:13:02;;;;;;;12.07;11.13;;;;;;;;;;6098824;23;20002;-80
2022/11/10 09:15:29;;;;;;;0.57;0.57;;;;;;;;;;6100906;23;20009;-80
2022/11/10 09:17:59;;;;;;;3.47;3.38;;;;;;;;;;6127490;23;20009;-80
2022/11/10 09:20:26;;;;;;;5.00;4.68;;;;;;;;;;6127863;23;20010;-79
2022/11/10 09:22:52;;;;;;;1.60;1.15;;;;;;;;;;6129441;23;20006;-80
2022/11/10 09:25:19;;;;;;;2.38;2.17;;;;;;;;;;6125439;23;20014;-82
2022/11/10 09:27:45;;;;;;;2.00;1.90;;;;;;;;;;6102246;23;20006;-82
2022/11/10 09:30:12;;;;;;;4.00;3.60;;;;;;;;;;6102367;23;20061;-82
2022/11/10 09:32:39;;;;;;;0.10;0.10;;;;;;;;;;6101573;23;20002;-81
2022/11/10 09:35:05;;;;;;;3.83;2.65;;;;;;;;;;6104301;23;20044;-78
2022/11/10 09:37:32;;;;;;;5.63;3.85;;;;;;;;;;6104096;23;20006;-81
2022/11/10 09:39:58;;;;;;;0.10;0.05;;;;;;;;;;6130384;23;20068;-82
2022/11/10 09:42:36;;;;;;;0.20;0.20;;;;;;;;;;6101426;23;20017;-76
2022/11/10 09:45:17;;;;;;;0.10;0.10;;;;;;;;;;6100927;23;20009;-76
2022/11/10 09:47:56;;;;;;;2.38;2.17;;;;;;;;;;6123951;23;19998;-81
2022/11/10 09:50:41;;;;;;;0.00;0.00;;;;;;;;;;6097213;23;20008;-77
2022/11/10 09:53:15;;;;;;;2.08;1.63;;;;;;;;;;6122852;23;20014;-79
2022/11/10 09:55:53;;;;;;;6.22;4.57;;;;;;;;;;6099939;23;20017;-80
2022/11/10 09:58:21;;;;;;;1.38;1.30;;;;;;;;;;6098760;23;20005;-81
2022/11/10 10:00:57;;;;;;;1.38;1.38;;;;;;;;;;6125538;23;20064;-84
2022/11/10 10:03:27;;;;;;;0.00;0.00;;;;;;;;;;6098485;23;20064;-83
2022/11/10 10:06:10;;;;;;;2.83;2.72;;;;;;;;;;6130341;23;20006;-85
2022/11/10 10:08:40;;;;;;;0.00;0.00;;;;;;;;;;6101569;23;20010;-84
2022/11/10 10:11:21;;;;;;;0.00;0.00;;;;;;;;;;6116849;23;20009;-80
2022/11/10 10:14:00;;;;;;;0.00;0.00;;;;;;;;;;6139757;23;20006;-80
2022/11/10 10:16:34;;;;;;;0.00;0.00;;;;;;;;;;6098835;23;20014;-82
2022/11/10 10:19:19;;;;;;;0.13;0.13;;;;;;;;;;6123123;23;20008;-88
2022/11/10 10:21:49;;;;;;;0.00;0.00;;;;;;;;;;6102092;23;20018;-83
2022/11/10 10:24:17;;;;;;;2.08;0.85;;;;;;;;;;6099796;23;20025;-77
2022/11/10 10:26:50;;;;;;;0.35;0.35;;;;;;;;;;6127431;23;20009;-79
2022/11/10 10:29:22;;;;;;;0.65;0.65;;;;;;;;;;6125599;23;19998;-79
2022/11/10 10:31:49;;;;;;;0.00;0.00;;;;;;;;;;6123733;23;20010;-83
2022/11/10 10:34:17;;;;;;;0.28;0.28;;;;;;;;;;6124414;23;20006;-85
2022/11/10 10:36:44;;;;;;;0.10;0.10;;;;;;;;;;6099676;23;20010;-84
2022/11/10 10:39:13;;;;;;;0.00;0.00;;;;;;;;;;6124222;23;20085;-79
2022/11/10 10:41:41;;;;;;;0.45;0.45;;;;;;;;;;6122847;23;20002;-79
2022/11/10 10:44:12;;;;;;;0.00;0.00;;;;;;;;;;6098705;23;20010;-80
2022/11/10 10:46:48;;;;;;;0.00;0.00;;;;;;;;;;6125404;23;20220;-82
2022/11/10 10:49:22;;;;;;;0.00;0.00;;;;;;;;;;6124466;23;20002;-81
2022/11/10 10:51:50;;;;;;;0.00;0.00;;;;;;;;;;6127777;23;20028;-83
2022/11/10 10:54:29;;;;;;;0.50;0.50;;;;;;;;;;6127964;23;20009;-83
2022/11/10 10:57:17;;;;;;;0.00;0.00;;;;;;;;;;6131898;23;19990;-83
2022/11/10 10:59:44;;;;;;;0.00;0.00;;;;;;;;;;6108978;23;20033;-80
2022/11/10 11:02:25;;;;;;;1.52;1.48;;;;;;;;;;6132421;23;20064;-81
2022/11/10 11:05:09;;;;;;;0.45;0.45;;;;;;;;;;6145815;23;20010;-82
2022/11/10 11:07:35;;;;;;;0.08;0.08;;;;;;;;;;6108135;23;20050;-83
2022/11/10 11:10:02;;;;;;;0.57;0.57;;;;;;;;;;6128681;23;20006;-81
2022/11/10 11:12:32;;;;;;;0.00;0.00;;;;;;;;;;6102423;23;20016;-83
2022/11/10 11:15:17;;;;;;;1.55;1.48;;;;;;;;;;6127642;23;20320;-85
2022/11/10 11:17:53;;;;;;;0.00;0.00;;;;;;;;;;6105502;23;20017;-79
2022/11/10 11:20:21;;;;;;;0.10;0.10;;;;;;;;;;6121827;23;20016;-80
2022/11/10 11:22:54;;;;;;;0.00;0.00;;;;;;;;;;6127385;23;20443;-81
2022/11/10 11:25:33;;;;;;;1.10;0.90;;;;;;;;;;6125485;23;20014;-80
2022/11/10 11:28:12;;;;;;;0.30;0.30;;;;;;;;;;6124711;23;20137;-80
2022/11/10 11:30:48;;;;;;;0.00;0.00;;;;;;;;;;6102329;23;20527;-87
2022/11/10 11:33:23;;;;;;;0.00;0.00;;;;;;;;;;6100010;23;20422;-84
2022/11/10 11:35:52;;;;;;;0.00;0.00;;;;;;;;;;6125627;23;20002;-81
2022/11/10 11:38:45;;;;;;;0.55;0.55;;;;;;;;;;6126391;23;20012;-81
2022/11/10 11:41:20;;;;;;;0.00;0.00;;;;;;;;;;6120283;23;20006;-79
2022/11/10 11:43:59;;;;;;;0.38;0.38;;;;;;;;;;6098350;23;20379;-85
2022/11/10 11:46:31;;;;;;;5.15;2.30;;;;;;;;;;6127537;23;20033;-83
2022/11/10 11:49:04;;;;;;;4.65;4.47;;;;;;;;;;6125705;23;20380;-82
2022/11/10 11:51:48;;;;;;;0.00;0.00;;;;;;;;;;6100628;23;20006;-83
2022/11/10 11:54:40;;;;;;;1.08;1.08;;;;;;;;;;6126922;23;20080;-84
2022/11/10 11:57:26;;;;;;;0.00;0.00;;;;;;;;;;6120599;23;20040;-83
2022/11/10 11:59:59;;;;;;;0.65;0.65;;;;;;;;;;6126215;23;20018;-85
2022/11/10 12:02:46;;;;;;;0.30;0.30;;;;;;;;;;6125815;23;20129;-83
2022/11/10 12:05:28;;;;;;;0.00;0.00;;;;;;;;;;6101476;23;20349;-81
2022/11/10 12:07:54;;;;;;;0.00;0.00;;;;;;;;;;6132259;23;20061;-82
2022/11/10 12:10:36;;;;;;;0.00;0.00;;;;;;;;;;6103207;23;20025;-84
2022/11/10 12:13:22;;;;;;;0.00;0.00;;;;;;;;;;6125343;23;20078;-82
2022/11/10 12:16:07;;;;;;;2.38;2.28;;;;;;;;;;6065467;23;20231;-82
2022/11/10 12:18:37;;;;;;;0.15;0.15;;;;;;;;;;6136250;23;20009;-82
2022/11/10 12:21:03;;;;;;;4.25;4.07;;;;;;;;;;6144654;23;20029;-82
2022/11/10 12:23:36;;;;;;;0.00;0.00;;;;;;;;;;6109532;23;20065;-82
2022/11/10 12:26:20;;;;;;;1.25;1.25;;;;;;;;;;6126699;23;20411;-84
2022/11/10 12:28:53;;;;;;;0.00;0.00;;;;;;;;;;6125622;23;20072;-85
2022/11/10 12:31:22;;;;;;;1.45;1.45;;;;;;;;;;6126702;23;20470;-83
2022/11/10 12:33:53;;;;;;;0.00;0.00;;;;;;;;;;6126264;23;20061;-84
2022/11/10 12:36:20;;;;;;;0.22;0.22;;;;;;;;;;6099000;23;20402;-85
2022/11/10 12:39:05;;;;;;;0.00;0.00;;;;;;;;;;6100326;23;20013;-86
2022/11/10 12:41:39;;;;;;;4.13;3.92;;;;;;;;;;6099624;23;20342;-86
2022/11/10 12:44:08;;;;;;;0.32;0.32;;;;;;;;;;6126209;23;20006;-85
2022/11/10 12:46:35;;;;;;;24.60;22.52;;;;;;;;;;6126041;23;20191;-84
2022/11/10 12:49:07;;;;;;;3.58;3.28;;;;;;;;;;6128162;23;20009;-86
2022/11/10 12:52:12;;;;;;;2.05;1.95;;;;;;;;;;6129280;23;20319;-86
2022/11/10 12:54:39;;;;;;;2.78;2.67;;;;;;;;;;5987138;23;20424;-86
2022/11/10 12:57:08;;;;;;;21.27;17.70;;;;;;;;;;6010526;23;20012;-87
2022/11/10 12:59:37;;;;;;;7.13;4.75;;;;;;;;;;6073155;23;20018;-85
2022/11/10 13:02:24;;;;;;;22.00;9.65;;;;;;;;;;6139075;23;20006;-85
2022/11/10 13:05:09;;;;;;;1.05;1.05;;;;;;;;;;6109503;23;20060;-87
2022/11/10 13:07:35;;;;;;;4.20;4.07;;;;;;;;;;6129468;23;20367;-85
2022/11/10 13:10:20;;;;;;;8.57;7.93;;;;;;;;;;6103179;23;20335;-86
2022/11/10 13:13:05;;;;;;;0.80;0.80;;;;;;;;;;6127734;23;20002;-84
2022/11/10 13:15:43;;;;;;;0.03;0.03;;;;;;;;;;6101719;23;20427;-86
2022/11/10 13:18:10;;;;;;;0.00;0.00;;;;;;;;;;6101638;23;20459;-86
2022/11/10 13:20:55;;;;;;;2.83;2.72;;;;;;;;;;6102106;23;20041;-80
2022/11/10 13:23:30;;;;;;;0.30;0.30;;;;;;;;;;6100693;23;20533;-83
2022/11/10 13:26:05;;;;;;;0.10;0.10;;;;;;;;;;6125722;23;20002;-85
2022/11/10 13:28:46;;;;;;;14.25;13.15;;;;;;;;;;6127237;23;20563;-85
2022/11/10 13:31:29;;;;;;;11.52;10.88;;;;;;;;;;6101604;23;20010;-82
2022/11/10 13:34:09;;;;;;;7.72;7.03;;;;;;;;;;6103296;23;20025;-84
2022/11/10 13:36:45;;;;;;;4.13;3.83;;;;;;;;;;6104207;23;20014;-81
2022/11/10 13:39:24;;;;;;;3.50;3.33;;;;;;;;;;6100404;23;20030;-81
2022/11/10 13:42:00;;;;;;;49.20;46.78;;;;;;;;;;6135870;23;20061;-81
2022/11/10 13:44:28;;;;;;;6.25;5.35;;;;;;;;;;6127211;23;20025;-81
2022/11/10 13:47:09;;;;;;;20.48;19.10;;;;;;;;;;6126639;23;20559;-80
2022/11/10 13:49:54;;;;;;;1.20;0.90;;;;;;;;;;6120536;23;20018;-81
2022/11/10 13:52:25;;;;;;;1.95;0.98;;;;;;;;;;6138361;23;20006;-81
2022/11/10 13:55:06;;;;;;;4.68;4.28;;;;;;;;;;6129657;23;20002;-81
2022/11/10 13:57:37;;;;;;;0.20;0.20;;;;;;;;;;6135988;23;20009;-78
2022/11/10 14:00:16;;;;;;;0.52;0.52;;;;;;;;;;6141375;23;20037;-79
2022/11/10 14:02:45;;;;;;;7.65;7.10;;;;;;;;;;6137612;23;20006;-80
2022/11/10 14:05:31;;;;;;;0.00;0.00;;;;;;;;;;6101643;23;20343;-80
2022/11/10 14:08:12;;;;;;;0.10;0.10;;;;;;;;;;6101782;23;20053;-81
2022/11/10 14:10:40;;;;;;;1.55;1.55;;;;;;;;;;6100580;23;20029;-80
2022/11/10 14:13:12;;;;;;;1.85;1.75;;;;;;;;;;6126797;23;20042;-81
2022/11/10 14:15:40;;;;;;;4.15;3.92;;;;;;;;;;6099564;23;20040;-80
2022/11/10 14:18:21;;;;;;;3.33;3.13;;;;;;;;;;6127634;23;20012;-81
2022/11/10 14:20:48;;;;;;;13.95;13.10;;;;;;;;;;6101949;23;20069;-80
2022/11/10 14:23:26;;;;;;;11.10;3.33;;;;;;;;;;6100918;23;20092;-79
2022/11/10 14:25:59;;;;;;;2.80;2.60;;;;;;;;;;6102947;23;20006;-79
2022/11/10 14:28:33;;;;;;;3.33;3.13;;;;;;;;;;6105933;23;20006;-80
2022/11/10 14:30:59;;;;;;;0.00;0.00;;;;;;;;;;6103935;23;20009;-79
2022/11/10 14:33:26;;;;;;;0.40;0.40;;;;;;;;;;6108607;23;20017;-79
2022/11/10 14:35:53;;;;;;;0.05;0.05;;;;;;;;;;6109441;23;20010;-79
2022/11/10 14:38:20;;;;;;;40.97;36.83;;;;;;;;;;6131807;23;20005;-79
2022/11/10 14:40:47;;;;;;;5.63;4.28;;;;;;;;;;6125914;23;20089;-79
2022/11/10 14:43:26;;;;;;;5.32;5.05;;;;;;;;;;6125233;23;20037;-79
2022/11/10 14:45:53;;;;;;;0.10;0.10;;;;;;;;;;6100201;23;20422;-81
2022/11/10 14:48:21;;;;;;;0.77;0.77;;;;;;;;;;6125764;23;20012;-81
2022/11/10 14:50:47;;;;;;;1.65;1.55;;;;;;;;;;6126914;23;20080;-81
2022/11/10 14:53:25;;;;;;;5.43;4.95;;;;;;;;;;6125501;23;20461;-79
2022/11/10 14:55:51;;;;;;;1.42;1.38;;;;;;;;;;6099333;23;20006;-80
2022/11/10 14:58:24;;;;;;;2.92;2.80;;;;;;;;;;6124164;23;20010;-79
2022/11/10 15:00:51;;;;;;;0.80;0.80;;;;;;;;;;6126108;23;20006;-79
2022/11/10 15:03:25;;;;;;;2.20;1.17;;;;;;;;;;6125868;23;20002;-81
2022/11/10 15:05:51;;;;;;;5.38;4.20;;;;;;;;;;6126626;23;20081;-80
2022/11/10 15:08:18;;;;;;;21.60;5.32;;;;;;;;;;6126351;23;20002;-79
2022/11/10 15:10:46;;;;;;;4.90;4.60;;;;;;;;;;6126139;23;20006;-81